Portada
METAR-TAF:

METAR-TAF

Aeroports :

Linton-on-Ouse, Anglaterra

latitud: 54-03N, longitud: 001-15W, altitud: 16 m

Observació

L'informe es va fer fa 1 hora i 9 minuts, a les 02:50 UTC
Vent 4 kt del Est
Temperatura 4°C
Humitat 81%
Pressió 1009 hPa
Visibilitat: 9000 m

METAR: EGXU 210250Z AUTO 10004KT 9000 // BKN028/// 04/01 Q1009

Hora: 03:59 (03:59 UTC)

Pronòstic

L'informe es va fer fa 14 hores i 41 minuts, a les 13:18 UTC
Pronòstic vàlid del 20 a les 15 UTC al 20 a les 19 UTC
Vent 10 kt del Sud-Est
Visibilitat 10 km o més
Escasses núvols a una alçada de 4500 ft

TAF: EGXU 201318Z 2015/2019 14010KT 9999 FEW045

Observacions i pronòstics meteorològics de més de 4000 aeroports (METAR i TAF).

Les estacions disponibles són els punts grocs i vermells al mapa.

Posi el ratolí al punt desitjat per veure el nom de l'estació.

Feu clic per veure les observacions i els pronòstics meteorològics.

Per canviar el mapa: feu clic els botons verds amb una creu de color negre per apropar; al botó verd amb un guió per allunyar la imatge; o en les fletxes verdes per a mapes adjacents.


METAR-TAF: